Metar Cercanos

 

LEPA - Palma De Mallorc, Spain
Distance from station: ONO 38km
Actualización: 18/07/2018 08:00
Despejado
Despejado
 Viento del ENE
Viento: ENE 11 km/h
Temperatura: 22°C
Rocío: 21°C
Humedad: 94%
Barómetro: 1015 hPa
Resumen: Despejado
Visibility: greater than 10 km
2018/07/18 06:00 LEPA 180600Z 06006KT CAVOK 22/21 Q1015 NOSIG
LEMH - Mahon/Menorca Is, Spain
Distance from station: ENE 105km
Actualización: 18/07/2018 08:00
Despejado
Despejado
 Viento del varies
Viento: varies 2 km/h
Temperatura: 24°C
Rocío: 20°C
Humedad: 78%
Barómetro: 1016 hPa
Resumen: Despejado
Visibility: greater than 10 km
2018/07/18 06:00 LEMH 180600Z VRB01KT CAVOK 24/20 Q1016
 
LEIB - Ibiza/Es Codola, Spain
Distance from station: OSO 165km
Actualización: 18/07/2018 08:00
Few Clouds
Few Clouds
 Viento del ENE
Viento: ENE 17 km/h
Temperatura: 25°C
Rocío: 22°C
Humedad: 83%
Barómetro: 1013 hPa
Clouds: Few Clouds
Visibility: 10 km
Cloud details: Few Clouds 427 m
2018/07/18 06:00 LEIB 180600Z 07009KT 020V120 9999 FEW014 25/22 Q1013 NOSIG
LEBL - Barcelona Airpor, Spain
Distance from station: NNO 225km
Actualización: 18/07/2018 08:00
Despejado
Despejado
 Viento del NNO
Viento: NNO 13 km/h
Temperatura: 22°C
Rocío: 18°C
Humedad: 78%
Barómetro: 1016 hPa
Resumen: Despejado
Visibility: greater than 10 km
2018/07/18 06:00 LEBL 180600Z 33007KT 300V020 CAVOK 22/18 Q1016 NOSIG
 
LEVC - Valencia (civ/Mi, Spain
Distance from station: NO 188km
Actualización: 18/07/2018 08:00
Few Clouds
Few Clouds
 Viento del NO
Viento: NO 13 km/h
Temperatura: 23°C
Rocío: 17°C
Humedad: 69%
Barómetro: 1015 hPa
Clouds: Few Clouds
Visibility: 10 km
Cloud details: Few Clouds 610 m
2018/07/18 06:00 LEVC 180600Z 32007KT 9999 FEW020 23/17 Q1015 NOSIG
LEGE - Gerona/Costa Bra, Spain
Distance from station: N 276km
Actualización: 18/07/2018 08:00
Despejado
Despejado
 Viento del calm
Viento: Calma
Temperatura: 20°C
Rocío: 18°C
Humedad: 88%
Barómetro: 1016 hPa
Resumen: Despejado
Visibility: greater than 10 km
2018/07/18 06:00 LEGE 180600Z 00000KT CAVOK 20/18 Q1016
 
LEAL - Alicante/El Alte, Spain
Distance from station: OSO 344km
Actualización: 18/07/2018 08:00
Few Clouds
Few Clouds
 Viento del varies
Viento: varies 4 km/h
Temperatura: 24°C
Rocío: 14°C
Humedad: 54%
Barómetro: 1014 hPa
Clouds: Few Clouds
Visibility: 10 km
Cloud details: Few Clouds 762 m
2018/07/18 06:00 LEAL 180600Z VRB02KT 9999 FEW025 24/14 Q1014 NOSIG
LEAM - Almeria Airport, Spain
Distance from station: SSO 56km
Actualización: 18/07/2018 08:00
Despejado
Despejado
 Viento del NNO
Viento: NNO 15 km/h
Temperatura: 27°C
Rocío: 9°C
Humedad: 32%
Barómetro: 1013 hPa
Resumen: Despejado
Visibility: greater than 10 km
2018/07/18 06:00 LEAM 180600Z 34008KT 320V020 CAVOK 27/09 Q1013
 
LEZG - Zaragoza (mil/Ci, Spain
Distance from station: NO 431km
Actualización: 18/07/2018 08:00
Despejado
Despejado
 Viento del ESE
Viento: ESE 13 km/h
Temperatura: 23°C
Rocío: 14°C
Humedad: 57%
Barómetro: 1015 hPa
Resumen: Despejado
Visibility: greater than 10 km
2018/07/18 06:00 LEZG 180600Z 12007KT 080V160 CAVOK 23/14 Q1015
LEMD - Madrid/Barajas, Spain
Distance from station: ONO 234km
Actualización: 18/07/2018 08:00
Despejado
Despejado
 Viento del NE
Viento: NE 6 km/h
Temperatura: 21°C
Rocío: 11°C
Humedad: 53%
Barómetro: 1015 hPa
Resumen: Despejado
Visibility: greater than 10 km
2018/07/18 06:00 LEMD 180600Z 04003KT CAVOK 21/11 Q1015 NOSIG
 
LEGR - Granada Airport, Spain
Distance from station: OSO 62km
Actualización: 18/07/2018 08:00
Despejado
Despejado
 Viento del calm
Viento: Calma
Temperatura: 17°C
Rocío: 8°C
Humedad: 56%
Barómetro: 1017 hPa
Resumen: Despejado
Visibility: greater than 10 km
2018/07/18 06:00 LEGR 180600Z 00000KT CAVOK 17/08 Q1017
LEMG - Malaga (civ/Mil), Spain
Distance from station: OSO 227km
Actualización: 18/07/2018 08:00
Despejado
Despejado
 Viento del O
Viento: O 11 km/h
Temperatura: 21°C
Rocío: 9°C
Humedad: 46%
Barómetro: 1014 hPa
Resumen: Despejado
Visibility: greater than 10 km
2018/07/18 06:00 LEMG 180600Z 28006KT CAVOK 21/09 Q1014 NOSIG
 
LEZL - Sevilla (civ/Mil, Spain
Distance from station: S 318km
Actualización: 18/07/2018 08:00
Despejado
Despejado
 Viento del S
Viento: S 7 km/h
Temperatura: 18°C
Rocío: 12°C
Humedad: 68%
Barómetro: 1014 hPa
Resumen: Despejado
Visibility: greater than 10 km
2018/07/18 06:00 LEZL 180600Z 18004KT CAVOK 18/12 Q1014 NOSIG
LEVT - Vitoria, Spain
Distance from station: NO 226km
Actualización: 18/07/2018 08:00
Few Clouds
Few Clouds
 Viento del calm
Viento: Calma
Temperatura: 16°C
Rocío: 16°C
Humedad: 100%
Barómetro: 1016 hPa
Clouds: Few Clouds
Visibility: 6 km
Cloud details: Few Clouds 335 m
2018/07/18 06:00 LEVT 180600Z 00000KT 6000 FEW011 16/16 Q1016
 
LEBB - Bilbao/Sondica, Spain
Distance from station: NNO 235km
Actualización: 18/07/2018 08:00
Few Clouds
Few Clouds
 Viento del calm
Viento: Calma
Temperatura: 21°C
Rocío: 19°C
Humedad: 88%
Barómetro: 1014 hPa
Clouds: Few Clouds
Visibility: 10 km
Cloud details: Few Clouds 701 m
2018/07/18 06:00 LEBB 180600Z 00000KT 9999 FEW023 21/19 Q1014 NOSIG
LESO - San Sebastian/Fu, Spain
Distance from station: N 231km
Actualización: 18/07/2018 08:00
Despejado
Despejado
 Viento del calm
Viento: Calma
Temperatura: 20°C
Rocío: 18°C
Humedad: 88%
Barómetro: 1014 hPa
Resumen: Despejado
Visibility: greater than 10 km
2018/07/18 06:00 LESO 180600Z 00000KT CAVOK 20/18 Q1014
 
LEVD - Valladolid(Mil/C, Spain
Distance from station: ONO 239km
Actualización: 18/07/2018 08:00
Few Clouds
Few Clouds
 Viento del E
Viento: E 7 km/h
Temperatura: 16°C
Rocío: 13°C
Humedad: 83%
Barómetro: 1014 hPa
Clouds: Few Clouds
Visibility: 10 km
Cloud details: Few Clouds 2743 m
2018/07/18 06:00 LEVD 180600Z 09004KT 070V130 9999 FEW090TCU 16/13 Q1014
LESA - Salamanca (civ/M, Spain
Distance from station: ONO 349km
Actualización: 18/07/2018 08:00
Few Clouds
Few Clouds
 Viento del calm
Viento: Calma
Temperatura: 14°C
Rocío: 12°C
Humedad: 88%
Barómetro: 1015 hPa
Clouds: Few Clouds
Visibility: 10 km
Cloud details: Few Clouds 1219 m
2018/07/18 06:00 LESA 180600Z 00000KT 9999 FEW040TCU 14/12 Q1015
 
LEXJ - Santander/Paraya, Spain
Distance from station: NNO 247km
Actualización: 18/07/2018 08:00
Muy nuboso
Muy nuboso
 Viento del SSO
Viento: SSO 6 km/h
Temperatura: 21°C
Rocío: 21°C
Humedad: 100%
Barómetro: 1014 hPa
Clouds: Muy nuboso
Visibility: 10 km
Cloud details: Parcialmente nuboso 366 m
Muy nuboso 853 m
2018/07/18 06:00 LEXJ 180600Z 20003KT 9999 SCT012 BKN028 21/21 Q1014
LEAS - Asturias/Aviles, Spain
Distance from station: NO 214km
Actualización: 18/07/2018 08:00
Lluvia débil, Drizzle, Niebla, Cubierto
Lluvia débil, Drizzle, Niebla, Cubierto
 Viento del ESE
Viento: ESE 9 km/h
Temperatura: 19°C
Rocío: 19°C
Humedad: 100%
Barómetro: 1015 hPa
Resumen: Lluvia débil, Drizzle, Niebla
Clouds: Cubierto
Visibility: 1 km
Cloud details: Cubierto 91 m
2018/07/18 06:00 LEAS 180600Z 11005KT 070V170 0900 R29/1800N R11/1900D -RADZ FG OVC003 19/19 Q1015 TEMPO FG BKN001
 
LECO - La Coruna/Alvedr, Spain
Distance from station: ONO 222km
Actualización: 18/07/2018 08:00
Muy nuboso
Muy nuboso
 Viento del varies
Viento: varies 4 km/h
Temperatura: 18°C
Rocío: 16°C
Humedad: 88%
Barómetro: 1014 hPa
Clouds: Muy nuboso
Visibility: 10 km
Cloud details: Muy nuboso 823 m
2018/07/18 06:00 LECO 180600Z VRB02KT 9999 BKN027 18/16 Q1014 NOSIG
LEVX - Vigo/Peinador, Spain
Distance from station: O 214km
Actualización: 18/07/2018 08:00
Despejado
Despejado
 Viento del calm
Viento: Calma
Temperatura: 16°C
Rocío: 15°C
Humedad: 94%
Barómetro: 1014 hPa
Resumen: Despejado
Visibility: greater than 10 km
2018/07/18 06:00 LEVX 180600Z 00000KT CAVOK 16/15 Q1014 NOSIG